sensor_id;sensor_type;location;lat;lon;timestamp;temperature;humidity
1534;DHT22;760;48.822;9.304;2023-04-15T04:05:14;4.00;99.90
1534;DHT22;760;48.822;9.304;2023-04-15T04:07:40;4.00;99.90
1534;DHT22;760;48.822;9.304;2023-04-15T04:10:06;4.00;99.90
1534;DHT22;760;48.822;9.304;2023-04-15T04:12:32;4.00;99.90
1534;DHT22;760;48.822;9.304;2023-04-15T04:14:57;3.90;99.90
1534;DHT22;760;48.822;9.304;2023-04-15T04:17:23;3.90;99.90
1534;DHT22;760;48.822;9.304;2023-04-15T04:19:48;3.90;99.90
1534;DHT22;760;48.822;9.304;2023-04-15T04:22:14;3.80;99.90
1534;DHT22;760;48.822;9.304;2023-04-15T04:24:40;3.80;99.90
1534;DHT22;760;48.822;9.304;2023-04-15T04:27:05;3.70;99.90
1534;DHT22;760;48.822;9.304;2023-04-15T04:29:31;3.70;99.90
1534;DHT22;760;48.822;9.304;2023-04-15T04:31:56;3.70;99.90
1534;DHT22;760;48.822;9.304;2023-04-15T04:34:22;3.70;99.90
1534;DHT22;760;48.822;9.304;2023-04-15T04:36:48;3.70;99.90
1534;DHT22;760;48.822;9.304;2023-04-15T04:39:13;3.70;99.90
1534;DHT22;760;48.822;9.304;2023-04-15T04:41:39;3.60;99.90
1534;DHT22;760;48.822;9.304;2023-04-15T04:44:04;3.60;99.90
1534;DHT22;760;48.822;9.304;2023-04-15T04:46:30;3.60;99.90
1534;DHT22;760;48.822;9.304;2023-04-15T04:48:55;3.60;99.90
1534;DHT22;760;48.822;9.304;2023-04-15T04:51:21;3.70;99.90
1534;DHT22;760;48.822;9.304;2023-04-15T04:53:47;3.70;99.90
1534;DHT22;760;48.822;9.304;2023-04-15T04:56:12;3.70;99.90
1534;DHT22;760;48.822;9.304;2023-04-15T04:58:38;3.70;99.90
1534;DHT22;760;48.822;9.304;2023-04-15T05:01:03;3.80;99.90
1534;DHT22;760;48.822;9.304;2023-04-15T05:03:29;3.80;99.90
1534;DHT22;760;48.822;9.304;2023-04-15T05:05:55;3.90;99.90
1534;DHT22;760;48.822;9.304;2023-04-15T05:08:20;3.90;99.90
1534;DHT22;760;48.822;9.304;2023-04-15T05:10:46;3.90;99.90
1534;DHT22;760;48.822;9.304;2023-04-15T05:13:12;3.80;99.90
1534;DHT22;760;48.822;9.304;2023-04-15T05:15:37;3.90;99.90
1534;DHT22;760;48.822;9.304;2023-04-15T05:18:05;3.90;99.90
1534;DHT22;760;48.822;9.304;2023-04-15T05:20:31;3.90;99.90
1534;DHT22;760;48.822;9.304;2023-04-15T05:22:56;4.00;99.90
1534;DHT22;760;48.822;9.304;2023-04-15T05:25:22;4.00;99.90
1534;DHT22;760;48.822;9.304;2023-04-15T05:27:48;4.00;99.90
1534;DHT22;760;48.822;9.304;2023-04-15T05:30:13;4.10;99.90
1534;DHT22;760;48.822;9.304;2023-04-15T05:32:39;4.10;99.90
1534;DHT22;760;48.822;9.304;2023-04-15T05:35:05;4.20;99.90
1534;DHT22;760;48.822;9.304;2023-04-15T05:37:31;4.20;99.90
1534;DHT22;760;48.822;9.304;2023-04-15T05:39:56;4.40;99.90
1534;DHT22;760;48.822;9.304;2023-04-15T05:42:22;4.40;99.90
1534;DHT22;760;48.822;9.304;2023-04-15T05:44:47;4.60;99.90
1534;DHT22;760;48.822;9.304;2023-04-15T05:47:13;4.70;99.90
1534;DHT22;760;48.822;9.304;2023-04-15T05:49:38;4.90;99.90
1534;DHT22;760;48.822;9.304;2023-04-15T05:52:04;5.00;99.90
1534;DHT22;760;48.822;9.304;2023-04-15T05:54:30;5.00;99.90
1534;DHT22;760;48.822;9.304;2023-04-15T05:56:56;5.10;99.90
1534;DHT22;760;48.822;9.304;2023-04-15T05:59:22;5.20;99.90
1534;DHT22;760;48.822;9.304;2023-04-15T06:01:48;5.40;99.90
1534;DHT22;760;48.822;9.304;2023-04-15T06:04:14;5.70;99.90
1534;DHT22;760;48.822;9.304;2023-04-15T06:06:39;5.90;99.90
1534;DHT22;760;48.822;9.304;2023-04-15T06:09:05;6.10;99.90
1534;DHT22;760;48.822;9.304;2023-04-15T06:11:31;6.20;99.90
1534;DHT22;760;48.822;9.304;2023-04-15T06:13:56;6.40;99.90
1534;DHT22;760;48.822;9.304;2023-04-15T06:16:22;6.60;99.90
1534;DHT22;760;48.822;9.304;2023-04-15T06:18:48;6.60;99.90
1534;DHT22;760;48.822;9.304;2023-04-15T06:21:14;6.70;99.90
1534;DHT22;760;48.822;9.304;2023-04-15T06:23:40;6.80;99.90
1534;DHT22;760;48.822;9.304;2023-04-15T06:26:06;6.90;99.90
1534;DHT22;760;48.822;9.304;2023-04-15T06:28:31;7.00;99.90
1534;DHT22;760;48.822;9.304;2023-04-15T06:30:57;7.10;99.90
1534;DHT22;760;48.822;9.304;2023-04-15T06:33:23;7.20;99.90
1534;DHT22;760;48.822;9.304;2023-04-15T06:35:48;7.20;99.90
1534;DHT22;760;48.822;9.304;2023-04-15T06:38:14;7.30;99.90
1534;DHT22;760;48.822;9.304;2023-04-15T06:40:40;7.40;99.90
1534;DHT22;760;48.822;9.304;2023-04-15T06:43:06;7.50;99.90
1534;DHT22;760;48.822;9.304;2023-04-15T06:45:32;7.50;99.90
1534;DHT22;760;48.822;9.304;2023-04-15T06:47:58;7.60;99.90
1534;DHT22;760;48.822;9.304;2023-04-15T06:50:24;7.70;99.90
1534;DHT22;760;48.822;9.304;2023-04-15T06:52:49;7.80;99.90
1534;DHT22;760;48.822;9.304;2023-04-15T06:55:15;7.90;99.90
1534;DHT22;760;48.822;9.304;2023-04-15T06:57:40;8.00;99.90
1534;DHT22;760;48.822;9.304;2023-04-15T07:00:06;8.00;99.90
1534;DHT22;760;48.822;9.304;2023-04-15T07:02:32;8.10;99.90
1534;DHT22;760;48.822;9.304;2023-04-15T07:04:58;8.40;99.90
1534;DHT22;760;48.822;9.304;2023-04-15T07:07:24;8.50;99.90
1534;DHT22;760;48.822;9.304;2023-04-15T07:09:50;8.50;99.90
1534;DHT22;760;48.822;9.304;2023-04-15T07:12:18;8.60;99.90
1534;DHT22;760;48.822;9.304;2023-04-15T07:14:43;8.80;99.90
1534;DHT22;760;48.822;9.304;2023-04-15T07:17:09;8.90;99.90
1534;DHT22;760;48.822;9.304;2023-04-15T07:19:34;8.90;99.90
1534;DHT22;760;48.822;9.304;2023-04-15T07:22:00;9.00;99.90
1534;DHT22;760;48.822;9.304;2023-04-15T07:24:26;9.30;99.90
1534;DHT22;760;48.822;9.304;2023-04-15T07:26:55;9.60;99.90
1534;DHT22;760;48.822;9.304;2023-04-15T07:29:24;9.90;99.90
1534;DHT22;760;48.822;9.304;2023-04-15T07:31:50;10.30;99.90
1534;DHT22;760;48.822;9.304;2023-04-15T07:34:16;10.70;99.90
1534;DHT22;760;48.822;9.304;2023-04-15T07:36:42;11.20;99.90
1534;DHT22;760;48.822;9.304;2023-04-15T07:39:08;11.80;99.90
1534;DHT22;760;48.822;9.304;2023-04-15T07:41:33;12.20;98.30
1534;DHT22;760;48.822;9.304;2023-04-15T07:43:59;12.60;97.70
1534;DHT22;760;48.822;9.304;2023-04-15T07:46:25;13.00;97.30
1534;DHT22;760;48.822;9.304;2023-04-15T07:48:52;13.20;96.20
1534;DHT22;760;48.822;9.304;2023-04-15T07:51:18;13.50;95.60
1534;DHT22;760;48.822;9.304;2023-04-15T07:53:45;13.60;95.00
1534;DHT22;760;48.822;9.304;2023-04-15T07:56:11;13.90;94.30
1534;DHT22;760;48.822;9.304;2023-04-15T07:58:37;14.20;94.20
1534;DHT22;760;48.822;9.304;2023-04-15T08:01:03;14.60;93.80
1534;DHT22;760;48.822;9.304;2023-04-15T08:03:29;15.00;92.60
1534;DHT22;760;48.822;9.304;2023-04-15T08:05:55;15.40;91.50
1534;DHT22;760;48.822;9.304;2023-04-15T08:08:21;15.70;91.80
1534;DHT22;760;48.822;9.304;2023-04-15T08:10:47;16.40;90.60
1534;DHT22;760;48.822;9.304;2023-04-15T08:13:12;17.50;90.30
1534;DHT22;760;48.822;9.304;2023-04-15T08:15:38;18.80;87.40
1534;DHT22;760;48.822;9.304;2023-04-15T08:18:04;19.80;84.60
1534;DHT22;760;48.822;9.304;2023-04-15T08:20:29;20.30;78.90
1534;DHT22;760;48.822;9.304;2023-04-15T08:22:55;20.30;76.20
1534;DHT22;760;48.822;9.304;2023-04-15T08:25:21;20.50;77.60
1534;DHT22;760;48.822;9.304;2023-04-15T08:27:47;21.10;74.10
1534;DHT22;760;48.822;9.304;2023-04-15T08:30:12;21.30;75.00
1534;DHT22;760;48.822;9.304;2023-04-15T08:32:38;21.20;73.00
1534;DHT22;760;48.822;9.304;2023-04-15T08:35:04;21.20;74.40
1534;DHT22;760;48.822;9.304;2023-04-15T08:37:30;21.30;71.30
1534;DHT22;760;48.822;9.304;2023-04-15T08:39:56;21.60;71.20
1534;DHT22;760;48.822;9.304;2023-04-15T08:42:31;21.90;70.10
1534;DHT22;760;48.822;9.304;2023-04-15T08:44:59;22.20;68.70
1534;DHT22;760;48.822;9.304;2023-04-15T08:47:29;22.90;68.50
1534;DHT22;760;48.822;9.304;2023-04-15T08:49:56;23.60;68.80
1534;DHT22;760;48.822;9.304;2023-04-15T08:52:27;24.20;68.70
1534;DHT22;760;48.822;9.304;2023-04-15T08:54:56;24.40;64.40
1534;DHT22;760;48.822;9.304;2023-04-15T08:57:29;24.50;63.00
1534;DHT22;760;48.822;9.304;2023-04-15T08:59:56;24.40;63.50
1534;DHT22;760;48.822;9.304;2023-04-15T09:02:23;24.00;64.00
1534;DHT22;760;48.822;9.304;2023-04-15T09:04:50;23.90;66.00
1534;DHT22;760;48.822;9.304;2023-04-15T09:07:15;23.20;64.50
1534;DHT22;760;48.822;9.304;2023-04-15T09:09:41;22.90;67.40
1534;DHT22;760;48.822;9.304;2023-04-15T09:12:08;22.30;66.70
1534;DHT22;760;48.822;9.304;2023-04-15T09:14:33;21.90;67.50
1534;DHT22;760;48.822;9.304;2023-04-15T09:17:03;22.20;67.30
1534;DHT22;760;48.822;9.304;2023-04-15T09:19:29;22.40;66.50
1534;DHT22;760;48.822;9.304;2023-04-15T09:21:57;22.60;65.40
1534;DHT22;760;48.822;9.304;2023-04-15T09:24:23;22.40;66.60
1534;DHT22;760;48.822;9.304;2023-04-15T09:26:53;22.30;66.20
1534;DHT22;760;48.822;9.304;2023-04-15T09:29:19;22.00;65.60
1534;DHT22;760;48.822;9.304;2023-04-15T09:31:45;21.20;66.10
1534;DHT22;760;48.822;9.304;2023-04-15T09:34:11;20.30;68.00
1534;DHT22;760;48.822;9.304;2023-04-15T09:39:12;19.50;72.40
1534;DHT22;760;48.822;9.304;2023-04-15T09:41:38;19.20;73.90
1534;DHT22;760;48.822;9.304;2023-04-15T09:44:05;19.30;76.80
1534;DHT22;760;48.822;9.304;2023-04-15T09:46:44;19.20;76.00
1534;DHT22;760;48.822;9.304;2023-04-15T09:49:10;19.00;76.20
1534;DHT22;760;48.822;9.304;2023-04-15T09:51:37;19.30;73.90
1534;DHT22;760;48.822;9.304;2023-04-15T09:54:03;19.50;74.90
1534;DHT22;760;48.822;9.304;2023-04-15T09:56:38;19.40;73.10
1534;DHT22;760;48.822;9.304;2023-04-15T09:59:07;19.10;73.70
1534;DHT22;760;48.822;9.304;2023-04-15T10:01:33;18.70;73.70
1534;DHT22;760;48.822;9.304;2023-04-15T10:04:02;18.40;73.70
1534;DHT22;760;48.822;9.304;2023-04-15T10:06:29;18.00;75.00
1534;DHT22;760;48.822;9.304;2023-04-15T10:08:56;18.10;76.30
1534;DHT22;760;48.822;9.304;2023-04-15T10:11:22;18.30;75.90
1534;DHT22;760;48.822;9.304;2023-04-15T10:13:49;19.00;75.90
1534;DHT22;760;48.822;9.304;2023-04-15T10:16:18;19.70;75.60
1534;DHT22;760;48.822;9.304;2023-04-15T10:18:54;20.40;69.60
1534;DHT22;760;48.822;9.304;2023-04-15T10:21:20;20.80;69.80
1534;DHT22;760;48.822;9.304;2023-04-15T10:23:48;21.00;69.60
1534;DHT22;760;48.822;9.304;2023-04-15T10:26:15;20.90;69.30
1534;DHT22;760;48.822;9.304;2023-04-15T10:28:45;20.60;66.20
1534;DHT22;760;48.822;9.304;2023-04-15T10:31:14;20.20;68.90
1534;DHT22;760;48.822;9.304;2023-04-15T10:33:41;19.90;68.60
1534;DHT22;760;48.822;9.304;2023-04-15T10:36:07;19.70;69.40
1534;DHT22;760;48.822;9.304;2023-04-15T10:38:37;19.30;69.50
1534;DHT22;760;48.822;9.304;2023-04-15T10:41:18;19.00;69.70
1534;DHT22;760;48.822;9.304;2023-04-15T10:43:52;18.60;71.70
1534;DHT22;760;48.822;9.304;2023-04-15T10:46:43;18.70;73.30
1534;DHT22;760;48.822;9.304;2023-04-15T10:49:17;19.10;71.60
1534;DHT22;760;48.822;9.304;2023-04-15T10:51:57;19.40;69.90
1534;DHT22;760;48.822;9.304;2023-04-15T10:57:08;19.50;70.00
1534;DHT22;760;48.822;9.304;2023-04-15T10:59:58;19.50;70.80
1534;DHT22;760;48.822;9.304;2023-04-15T11:05:08;19.70;67.90
1534;DHT22;760;48.822;9.304;2023-04-15T11:12:39;18.80;68.60
1534;DHT22;760;48.822;9.304;2023-04-15T11:17:54;18.30;71.70
1534;DHT22;760;48.822;9.304;2023-04-15T11:20:21;18.00;74.20
1534;DHT22;760;48.822;9.304;2023-04-15T11:22:48;18.10;73.60
1534;DHT22;760;48.822;9.304;2023-04-15T11:25:25;18.10;71.70
1534;DHT22;760;48.822;9.304;2023-04-15T11:27:51;18.10;73.40
1534;DHT22;760;48.822;9.304;2023-04-15T11:30:23;18.10;72.80
1534;DHT22;760;48.822;9.304;2023-04-15T11:32:49;17.80;71.70
1534;DHT22;760;48.822;9.304;2023-04-15T11:35:16;17.60;73.40
1534;DHT22;760;48.822;9.304;2023-04-15T11:37:43;17.40;74.20
1534;DHT22;760;48.822;9.304;2023-04-15T11:40:09;17.10;75.50
1534;DHT22;760;48.822;9.304;2023-04-15T11:42:35;16.80;76.50
1534;DHT22;760;48.822;9.304;2023-04-15T11:45:10;16.60;76.80
1534;DHT22;760;48.822;9.304;2023-04-15T11:47:36;16.40;78.90
1534;DHT22;760;48.822;9.304;2023-04-15T11:50:18;16.10;79.00
1534;DHT22;760;48.822;9.304;2023-04-15T11:55:23;16.00;77.50
1534;DHT22;760;48.822;9.304;2023-04-15T11:58:28;16.10;79.20
1534;DHT22;760;48.822;9.304;2023-04-15T12:00:56;16.00;78.90
1534;DHT22;760;48.822;9.304;2023-04-15T12:03:26;16.00;79.90
1534;DHT22;760;48.822;9.304;2023-04-15T12:06:22;16.00;81.90
1534;DHT22;760;48.822;9.304;2023-04-15T12:08:55;15.80;79.30
1534;DHT22;760;48.822;9.304;2023-04-15T12:13:53;14.90;79.80
1534;DHT22;760;48.822;9.304;2023-04-15T12:16:19;14.60;82.40
1534;DHT22;760;48.822;9.304;2023-04-15T12:18:46;14.50;84.20
1534;DHT22;760;48.822;9.304;2023-04-15T12:21:12;14.60;81.40
1534;DHT22;760;48.822;9.304;2023-04-15T12:23:46;14.60;81.60
1534;DHT22;760;48.822;9.304;2023-04-15T12:26:12;14.60;82.30
1534;DHT22;760;48.822;9.304;2023-04-15T12:28:39;14.70;83.00
1534;DHT22;760;48.822;9.304;2023-04-15T12:31:07;14.70;81.70
1534;DHT22;760;48.822;9.304;2023-04-15T12:33:33;14.50;82.10
1534;DHT22;760;48.822;9.304;2023-04-15T12:35:59;14.20;86.10
1534;DHT22;760;48.822;9.304;2023-04-15T12:38:25;13.80;89.20
1534;DHT22;760;48.822;9.304;2023-04-15T12:40:50;13.40;91.30
1534;DHT22;760;48.822;9.304;2023-04-15T12:43:16;13.10;92.80
1534;DHT22;760;48.822;9.304;2023-04-15T12:45:42;12.90;94.50
1534;DHT22;760;48.822;9.304;2023-04-15T12:48:07;12.60;96.50
1534;DHT22;760;48.822;9.304;2023-04-15T12:50:34;12.40;97.40
1534;DHT22;760;48.822;9.304;2023-04-15T12:53:00;12.30;97.80
1534;DHT22;760;48.822;9.304;2023-04-15T12:55:25;12.10;98.50
1534;DHT22;760;48.822;9.304;2023-04-15T12:57:52;11.90;99.10
1534;DHT22;760;48.822;9.304;2023-04-15T13:00:18;11.90;99.90
1534;DHT22;760;48.822;9.304;2023-04-15T13:02:44;12.00;99.90
1534;DHT22;760;48.822;9.304;2023-04-15T13:05:09;11.90;99.00
1534;DHT22;760;48.822;9.304;2023-04-15T13:07:35;12.00;98.60
1534;DHT22;760;48.822;9.304;2023-04-15T13:10:00;12.10;99.10
1534;DHT22;760;48.822;9.304;2023-04-15T13:12:26;12.20;97.30
1534;DHT22;760;48.822;9.304;2023-04-15T13:14:52;12.30;96.00
1534;DHT22;760;48.822;9.304;2023-04-15T13:17:18;12.40;93.70
1534;DHT22;760;48.822;9.304;2023-04-15T13:19:45;12.50;93.70
1534;DHT22;760;48.822;9.304;2023-04-15T13:22:11;12.60;93.30
1534;DHT22;760;48.822;9.304;2023-04-15T13:24:37;12.80;92.90
1534;DHT22;760;48.822;9.304;2023-04-15T13:27:03;12.80;91.80
1534;DHT22;760;48.822;9.304;2023-04-15T13:29:29;12.90;91.60
1534;DHT22;760;48.822;9.304;2023-04-15T13:31:55;13.00;90.60
1534;DHT22;760;48.822;9.304;2023-04-15T13:34:21;13.10;90.10
1534;DHT22;760;48.822;9.304;2023-04-15T13:36:46;13.30;90.00
1534;DHT22;760;48.822;9.304;2023-04-15T13:39:12;13.40;89.10
1534;DHT22;760;48.822;9.304;2023-04-15T13:41:37;13.40;86.30
1534;DHT22;760;48.822;9.304;2023-04-15T13:44:03;13.50;86.20
1534;DHT22;760;48.822;9.304;2023-04-15T13:46:30;13.60;86.60
1534;DHT22;760;48.822;9.304;2023-04-15T13:48:55;13.70;88.40
1534;DHT22;760;48.822;9.304;2023-04-15T13:51:21;13.80;86.30
1534;DHT22;760;48.822;9.304;2023-04-15T13:53:46;13.90;86.20
1534;DHT22;760;48.822;9.304;2023-04-15T13:56:12;13.90;85.90
1534;DHT22;760;48.822;9.304;2023-04-15T13:58:39;14.00;87.60
1534;DHT22;760;48.822;9.304;2023-04-15T14:01:05;13.90;83.80
1534;DHT22;760;48.822;9.304;2023-04-15T14:03:31;13.90;84.10
1534;DHT22;760;48.822;9.304;2023-04-15T14:05:56;13.80;82.20
1534;DHT22;760;48.822;9.304;2023-04-15T14:08:24;13.70;80.40
1534;DHT22;760;48.822;9.304;2023-04-15T14:10:49;13.60;78.40
1534;DHT22;760;48.822;9.304;2023-04-15T14:13:15;13.60;78.30
1534;DHT22;760;48.822;9.304;2023-04-15T14:15:41;13.50;78.40
1534;DHT22;760;48.822;9.304;2023-04-15T14:18:07;13.50;80.50
1534;DHT22;760;48.822;9.304;2023-04-15T14:20:32;13.40;78.10
1534;DHT22;760;48.822;9.304;2023-04-15T14:22:58;13.30;77.70
1534;DHT22;760;48.822;9.304;2023-04-15T14:25:24;13.20;78.40
1534;DHT22;760;48.822;9.304;2023-04-15T14:27:51;13.10;78.00
1534;DHT22;760;48.822;9.304;2023-04-15T14:30:16;13.00;80.10
1534;DHT22;760;48.822;9.304;2023-04-15T14:32:42;12.90;80.00
1534;DHT22;760;48.822;9.304;2023-04-15T14:35:08;12.80;80.10
1534;DHT22;760;48.822;9.304;2023-04-15T14:37:33;12.70;80.40
1534;DHT22;760;48.822;9.304;2023-04-15T14:39:59;12.70;82.30
1534;DHT22;760;48.822;9.304;2023-04-15T14:42:24;12.60;82.30
1534;DHT22;760;48.822;9.304;2023-04-15T14:44:50;12.60;83.60
1534;DHT22;760;48.822;9.304;2023-04-15T14:47:16;12.60;84.70
1534;DHT22;760;48.822;9.304;2023-04-15T14:49:41;12.50;84.80
1534;DHT22;760;48.822;9.304;2023-04-15T14:52:07;12.50;85.20
1534;DHT22;760;48.822;9.304;2023-04-15T14:54:33;12.50;86.30
1534;DHT22;760;48.822;9.304;2023-04-15T14:56:58;12.50;86.10
1534;DHT22;760;48.822;9.304;2023-04-15T14:59:24;12.50;86.90
1534;DHT22;760;48.822;9.304;2023-04-15T15:01:49;12.50;87.30
1534;DHT22;760;48.822;9.304;2023-04-15T15:04:15;12.50;87.60
1534;DHT22;760;48.822;9.304;2023-04-15T15:06:41;12.50;86.80
1534;DHT22;760;48.822;9.304;2023-04-15T15:09:06;12.50;87.20
1534;DHT22;760;48.822;9.304;2023-04-15T15:11:32;12.40;87.30
1534;DHT22;760;48.822;9.304;2023-04-15T15:13:58;12.20;86.90
1534;DHT22;760;48.822;9.304;2023-04-15T15:16:24;12.20;88.70
1534;DHT22;760;48.822;9.304;2023-04-15T15:18:49;12.00;89.90
1534;DHT22;760;48.822;9.304;2023-04-15T15:21:15;12.00;90.10
1534;DHT22;760;48.822;9.304;2023-04-15T15:23:41;11.90;90.20
1534;DHT22;760;48.822;9.304;2023-04-15T15:26:07;11.80;90.40
1534;DHT22;760;48.822;9.304;2023-04-15T15:28:33;11.70;90.50
1534;DHT22;760;48.822;9.304;2023-04-15T15:30:59;11.80;91.00
1534;DHT22;760;48.822;9.304;2023-04-15T15:33:25;11.70;91.30
1534;DHT22;760;48.822;9.304;2023-04-15T15:35:50;11.60;92.60
1534;DHT22;760;48.822;9.304;2023-04-15T15:38:16;11.50;92.80
1534;DHT22;760;48.822;9.304;2023-04-15T15:40:42;11.50;93.80
1534;DHT22;760;48.822;9.304;2023-04-15T15:43:07;11.40;95.50
1534;DHT22;760;48.822;9.304;2023-04-15T15:45:34;11.40;95.90
1534;DHT22;760;48.822;9.304;2023-04-15T15:48:00;11.30;95.10
1534;DHT22;760;48.822;9.304;2023-04-15T15:50:26;11.10;95.20
1534;DHT22;760;48.822;9.304;2023-04-15T15:52:52;11.10;95.20
1534;DHT22;760;48.822;9.304;2023-04-15T15:55:17;11.10;96.10
1534;DHT22;760;48.822;9.304;2023-04-15T15:57:43;11.00;96.50
1534;DHT22;760;48.822;9.304;2023-04-15T16:00:09;11.10;96.40
1534;DHT22;760;48.822;9.304;2023-04-15T16:02:36;11.10;96.00
1534;DHT22;760;48.822;9.304;2023-04-15T16:05:02;11.10;96.70
1534;DHT22;760;48.822;9.304;2023-04-15T16:07:27;11.00;97.10
1534;DHT22;760;48.822;9.304;2023-04-15T16:09:53;10.90;98.40
1534;DHT22;760;48.822;9.304;2023-04-15T16:12:19;10.80;99.20
1534;DHT22;760;48.822;9.304;2023-04-15T16:14:44;10.70;99.90
1534;DHT22;760;48.822;9.304;2023-04-15T16:17:11;10.60;99.90
1534;DHT22;760;48.822;9.304;2023-04-15T16:19:37;10.50;99.90
1534;DHT22;760;48.822;9.304;2023-04-15T16:22:02;10.30;99.90
1534;DHT22;760;48.822;9.304;2023-04-15T16:24:28;10.20;99.90
1534;DHT22;760;48.822;9.304;2023-04-15T16:26:54;10.10;99.90
1534;DHT22;760;48.822;9.304;2023-04-15T16:29:22;10.00;99.90
1534;DHT22;760;48.822;9.304;2023-04-15T16:31:48;9.90;99.90
1534;DHT22;760;48.822;9.304;2023-04-15T16:34:14;9.90;99.90
1534;DHT22;760;48.822;9.304;2023-04-15T16:36:40;9.80;99.90
1534;DHT22;760;48.822;9.304;2023-04-15T16:39:06;9.80;99.90
1534;DHT22;760;48.822;9.304;2023-04-15T16:41:32;9.70;99.90
1534;DHT22;760;48.822;9.304;2023-04-15T16:43:59;9.60;99.90
1534;DHT22;760;48.822;9.304;2023-04-15T16:46:25;9.60;99.90
1534;DHT22;760;48.822;9.304;2023-04-15T16:48:51;9.50;99.90
1534;DHT22;760;48.822;9.304;2023-04-15T16:51:16;9.50;99.90
1534;DHT22;760;48.822;9.304;2023-04-15T16:53:42;9.40;99.90
1534;DHT22;760;48.822;9.304;2023-04-15T16:56:08;9.40;99.90
1534;DHT22;760;48.822;9.304;2023-04-15T16:58:33;9.30;99.90
1534;DHT22;760;48.822;9.304;2023-04-15T17:00:59;9.20;99.90
1534;DHT22;760;48.822;9.304;2023-04-15T17:03:25;9.10;99.90
1534;DHT22;760;48.822;9.304;2023-04-15T17:05:51;9.10;99.90
1534;DHT22;760;48.822;9.304;2023-04-15T17:08:16;9.10;99.90
1534;DHT22;760;48.822;9.304;2023-04-15T17:10:42;9.00;99.90
1534;DHT22;760;48.822;9.304;2023-04-15T17:13:08;9.10;99.90
1534;DHT22;760;48.822;9.304;2023-04-15T17:15:34;9.10;99.90
1534;DHT22;760;48.822;9.304;2023-04-15T17:18:00;9.10;99.90
1534;DHT22;760;48.822;9.304;2023-04-15T17:20:26;9.00;99.90
1534;DHT22;760;48.822;9.304;2023-04-15T17:22:51;9.00;99.90
1534;DHT22;760;48.822;9.304;2023-04-15T17:25:17;9.00;99.90
1534;DHT22;760;48.822;9.304;2023-04-15T17:27:43;9.00;99.90
1534;DHT22;760;48.822;9.304;2023-04-15T17:30:09;9.00;99.90
1534;DHT22;760;48.822;9.304;2023-04-15T17:32:35;9.00;99.90
1534;DHT22;760;48.822;9.304;2023-04-15T17:35:03;8.90;99.90
1534;DHT22;760;48.822;9.304;2023-04-15T17:37:33;8.80;99.90
1534;DHT22;760;48.822;9.304;2023-04-15T17:39:59;8.80;99.90
1534;DHT22;760;48.822;9.304;2023-04-15T17:42:25;8.80;99.90
1534;DHT22;760;48.822;9.304;2023-04-15T17:44:50;8.80;99.90
1534;DHT22;760;48.822;9.304;2023-04-15T17:47:16;8.70;99.90
1534;DHT22;760;48.822;9.304;2023-04-15T17:49:42;8.70;99.90
1534;DHT22;760;48.822;9.304;2023-04-15T17:52:08;8.60;99.90
1534;DHT22;760;48.822;9.304;2023-04-15T17:54:34;8.60;99.90
1534;DHT22;760;48.822;9.304;2023-04-15T17:57:00;8.60;99.90
1534;DHT22;760;48.822;9.304;2023-04-15T17:59:27;8.60;99.90
1534;DHT22;760;48.822;9.304;2023-04-15T18:01:53;8.60;99.90
1534;DHT22;760;48.822;9.304;2023-04-15T18:04:19;8.50;99.90
1534;DHT22;760;48.822;9.304;2023-04-15T18:06:44;8.50;99.90
1534;DHT22;760;48.822;9.304;2023-04-15T18:09:10;8.50;99.90
1534;DHT22;760;48.822;9.304;2023-04-15T18:11:36;8.50;99.90
1534;DHT22;760;48.822;9.304;2023-04-15T18:14:03;8.40;99.90
1534;DHT22;760;48.822;9.304;2023-04-15T18:16:29;8.40;99.90
1534;DHT22;760;48.822;9.304;2023-04-15T18:18:54;8.50;99.90
1534;DHT22;760;48.822;9.304;2023-04-15T18:21:20;8.40;99.90
1534;DHT22;760;48.822;9.304;2023-04-15T18:23:45;8.40;99.90
1534;DHT22;760;48.822;9.304;2023-04-15T18:26:12;8.40;99.90
1534;DHT22;760;48.822;9.304;2023-04-15T18:28:37;8.40;99.90
1534;DHT22;760;48.822;9.304;2023-04-15T18:31:04;8.40;99.90
1534;DHT22;760;48.822;9.304;2023-04-15T18:33:30;8.40;99.90
1534;DHT22;760;48.822;9.304;2023-04-15T18:35:56;8.30;99.90
1534;DHT22;760;48.822;9.304;2023-04-15T18:38:22;8.30;99.90
1534;DHT22;760;48.822;9.304;2023-04-15T18:40:48;8.40;99.90
1534;DHT22;760;48.822;9.304;2023-04-15T18:43:13;8.40;99.90
1534;DHT22;760;48.822;9.304;2023-04-15T18:45:39;8.30;99.90
1534;DHT22;760;48.822;9.304;2023-04-15T18:48:05;8.30;99.90
1534;DHT22;760;48.822;9.304;2023-04-15T18:50:30;8.30;99.90
1534;DHT22;760;48.822;9.304;2023-04-15T18:52:56;8.30;99.90
1534;DHT22;760;48.822;9.304;2023-04-15T18:55:22;8.30;99.90
1534;DHT22;760;48.822;9.304;2023-04-15T18:57:48;8.30;99.90
1534;DHT22;760;48.822;9.304;2023-04-15T19:00:14;8.30;99.90
1534;DHT22;760;48.822;9.304;2023-04-15T19:02:40;8.40;99.90
1534;DHT22;760;48.822;9.304;2023-04-15T19:05:07;8.30;99.90
1534;DHT22;760;48.822;9.304;2023-04-15T19:07:34;8.40;99.90
1534;DHT22;760;48.822;9.304;2023-04-15T19:10:00;8.40;99.90
1534;DHT22;760;48.822;9.304;2023-04-15T19:12:26;8.40;99.90
1534;DHT22;760;48.822;9.304;2023-04-15T19:14:51;8.40;99.90
1534;DHT22;760;48.822;9.304;2023-04-15T19:17:17;8.40;99.90
1534;DHT22;760;48.822;9.304;2023-04-15T19:19:43;8.40;99.90
1534;DHT22;760;48.822;9.304;2023-04-15T19:22:08;8.40;99.90
1534;DHT22;760;48.822;9.304;2023-04-15T19:24:34;8.40;99.90
1534;DHT22;760;48.822;9.304;2023-04-15T19:27:01;8.40;99.90
1534;DHT22;760;48.822;9.304;2023-04-15T19:29:26;8.40;99.90
1534;DHT22;760;48.822;9.304;2023-04-15T19:31:55;8.40;99.90
1534;DHT22;760;48.822;9.304;2023-04-15T19:34:21;8.40;99.90
1534;DHT22;760;48.822;9.304;2023-04-15T19:36:46;8.40;99.90
1534;DHT22;760;48.822;9.304;2023-04-15T19:39:12;8.40;99.90
1534;DHT22;760;48.822;9.304;2023-04-15T19:41:38;8.40;99.90
1534;DHT22;760;48.822;9.304;2023-04-15T19:44:04;8.40;99.90
1534;DHT22;760;48.822;9.304;2023-04-15T19:46:30;8.40;99.90
1534;DHT22;760;48.822;9.304;2023-04-15T19:48:56;8.40;99.90
1534;DHT22;760;48.822;9.304;2023-04-15T19:51:23;8.40;99.90
1534;DHT22;760;48.822;9.304;2023-04-15T19:53:49;8.40;99.90
1534;DHT22;760;48.822;9.304;2023-04-15T19:56:15;8.40;99.90
1534;DHT22;760;48.822;9.304;2023-04-15T19:58:41;8.40;99.90
1534;DHT22;760;48.822;9.304;2023-04-15T20:01:06;8.40;99.90
1534;DHT22;760;48.822;9.304;2023-04-15T20:03:32;8.40;99.90
1534;DHT22;760;48.822;9.304;2023-04-15T20:05:57;8.30;99.90
1534;DHT22;760;48.822;9.304;2023-04-15T20:08:23;8.40;99.90
1534;DHT22;760;48.822;9.304;2023-04-15T20:10:49;8.40;99.90
1534;DHT22;760;48.822;9.304;2023-04-15T20:13:14;8.40;99.90
1534;DHT22;760;48.822;9.304;2023-04-15T20:15:40;8.40;99.90
1534;DHT22;760;48.822;9.304;2023-04-15T20:18:05;8.40;99.90
1534;DHT22;760;48.822;9.304;2023-04-15T20:20:33;8.40;99.90
1534;DHT22;760;48.822;9.304;2023-04-15T20:22:59;8.40;99.90
1534;DHT22;760;48.822;9.304;2023-04-15T20:25:24;8.40;99.90
1534;DHT22;760;48.822;9.304;2023-04-15T20:27:50;8.40;99.90
1534;DHT22;760;48.822;9.304;2023-04-15T20:30:16;8.40;99.90
1534;DHT22;760;48.822;9.304;2023-04-15T20:32:41;8.40;99.90
1534;DHT22;760;48.822;9.304;2023-04-15T20:35:07;8.40;99.90
1534;DHT22;760;48.822;9.304;2023-04-15T20:37:33;8.40;99.90
1534;DHT22;760;48.822;9.304;2023-04-15T20:39:59;8.40;99.90
1534;DHT22;760;48.822;9.304;2023-04-15T20:42:25;8.40;99.90
1534;DHT22;760;48.822;9.304;2023-04-15T20:44:51;8.40;99.90
1534;DHT22;760;48.822;9.304;2023-04-15T20:47:16;8.40;99.90